Tropical Cyclones
[Index]
Main Index Home Page Stock Weather Photos Extreme Storms Discussion Storm News and Storm Chasing Reports Tropical Cyclones / Hurricanes / Typhoons Weather Data and Links Wild Fires / Bushfires Weather Observation Techniques Weather Picture Catalogue Tornado Pictures and Reports Stock Video Footage and DVDs for sale
Season 2009-2010 Tropical Cyclone MICK Track Map
Season 2009-2010 Summaries: [BoM-AU] [JTWC-AU] [JTWC-SIO] [JTWC-SPAC] [JTWC-SH]
<<- Previous TC | JTWC 2009-2010 Season | Next TC ->>

click for intensity scale information  Lat/long Grid: Show Hide

 Date Labels: Show Hide

Joint Typhoon Warning Centre Cyclone Data

Name: MICK

11 Dec 2009 12:00 UTC to 15 Dec 2009 18:00 UTC

    date/time    lat    long     hPa   cat  kts
2009-12-11 12   10.3   172.1    1010         15          
2009-12-11 18   10.8   173.5    1004         25          
2009-12-12 00   11.5   174.5    1000         30          
2009-12-12 06   12.4   174.9    1000         30          
2009-12-12 12   13.1   174.9     996         35          
2009-12-12 18   13.7   175.1     993    1    40          
2009-12-13 00   14.3   175.3     985    1    50          
2009-12-13 06   14.8   175.7     982    2    55          
2009-12-13 06   14.8   175.7     982    2    55          
2009-12-13 12   15.5   176.1     978    2    60          
2009-12-13 12   15.5   176.1     978    2    60          
2009-12-13 18   16.4   176.8     974    2    65          
2009-12-13 18   16.4   176.8     974    2    65          
2009-12-14 00   17.4   177.6     974    2    65          
2009-12-14 00   17.4   177.6     974    2    65          
2009-12-14 00   17.4   177.6     974    2    65          
2009-12-14 06   18.2   178.3     974    2    65          
2009-12-14 06   18.2   178.3     974    2    65          
2009-12-14 06   18.2   178.3     974    2    65          
2009-12-14 12   18.7   178.7     982    2    55          
2009-12-14 12   18.7   178.7     982    2    55          
2009-12-14 18   19.1   179.1     989    1    45          
2009-12-15 00   19.4   180.0     993    1    40          
2009-12-15 06   19.8   178.9W    996         35          
2009-12-15 12   20.0   177.8W   1000         30          
2009-12-15 18   20.2   176.6W   1007         20          
Winds are 1-min average.

Tropical cyclone tracks developed by Michael Bath using data from the Joint Typhoon Warning Centre Best Tracks and Google Maps.


[Australian Severe Weather index] [Copyright Notice] [Email Contacts] [Search This Site] [Privacy Policy]
Document: tropical_cyclone_mick.htm Updated: 28 June 2017